Time;durP1;ratioP1;P1;durP2;ratioP2;P2;SDS_P1;SDS_P2;PMS_P1;PMS_P2;Temp;Humidity;BMP_temperature;BMP_pressure;BME280_temperature;BME280_humidity;BME280_pressure;Samples;Min_cycle;Max_cycle;Signal;HPM_P1;HPM_P2
2022/12/22 03:30:45;;;;;;;0.57;0.20;;;;;;;;;;12912791;22;20099;-84
2022/12/22 03:35:49;;;;;;;0.20;0.20;;;;;;;;;;12904288;22;20016;-81
2022/12/22 03:40:53;;;;;;;0.20;0.20;;;;;;;;;;12887118;22;20024;-80
2022/12/22 03:51:27;;;;;;;0.20;0.20;;;;;;;;;;12839249;22;20024;-82
2022/12/22 03:56:31;;;;;;;0.10;0.10;;;;;;;;;;12887435;22;20032;-81
2022/12/22 04:01:37;;;;;;;0.45;0.15;;;;;;;;;;12888859;22;20554;-82
2022/12/22 04:06:42;;;;;;;1.05;0.32;;;;;;;;;;12939483;22;20028;-84
2022/12/22 04:17:08;;;;;;;0.38;0.20;;;;;;;;;;12912889;22;20047;-83
2022/12/22 04:22:13;;;;;;;0.10;0.10;;;;;;;;;;12920064;22;20020;-82
2022/12/22 04:27:16;;;;;;;0.40;0.20;;;;;;;;;;12886928;22;20035;-81
2022/12/22 04:32:20;;;;;;;0.10;0.10;;;;;;;;;;12885008;22;20051;-81
2022/12/22 04:37:24;;;;;;;0.20;0.20;;;;;;;;;;12893510;22;20047;-84
2022/12/22 04:42:28;;;;;;;0.10;0.10;;;;;;;;;;12927609;22;20020;-82
2022/12/22 04:47:31;;;;;;;0.20;0.20;;;;;;;;;;12888733;22;20031;-82
2022/12/22 04:52:36;;;;;;;0.30;0.20;;;;;;;;;;12936514;22;20474;-82
2022/12/22 04:57:40;;;;;;;0.35;0.35;;;;;;;;;;12923206;22;20043;-84
2022/12/22 05:02:43;;;;;;;0.20;0.20;;;;;;;;;;12912039;22;20030;-83
2022/12/22 05:07:48;;;;;;;0.32;0.20;;;;;;;;;;12908454;22;20024;-86
2022/12/22 05:12:54;;;;;;;0.20;0.20;;;;;;;;;;12904602;22;20100;-84
2022/12/22 05:17:58;;;;;;;0.22;0.20;;;;;;;;;;12915634;22;20075;-83
2022/12/22 05:23:03;;;;;;;0.20;0.20;;;;;;;;;;12896881;22;20035;-81
2022/12/22 05:28:06;;;;;;;0.30;0.20;;;;;;;;;;12889278;23;20024;-82
2022/12/22 05:33:10;;;;;;;0.15;0.15;;;;;;;;;;12910470;22;20030;-82
2022/12/22 05:38:14;;;;;;;0.10;0.10;;;;;;;;;;12894079;22;20488;-83
2022/12/22 05:43:18;;;;;;;0.50;0.20;;;;;;;;;;12925286;22;20020;-87
2022/12/22 05:48:21;;;;;;;0.30;0.20;;;;;;;;;;12914227;22;20028;-85
2022/12/22 05:53:30;;;;;;;0.70;0.10;;;;;;;;;;12913984;22;20449;-85
2022/12/22 05:58:34;;;;;;;0.65;0.32;;;;;;;;;;12894658;23;20051;-84
2022/12/22 06:03:38;;;;;;;0.10;0.10;;;;;;;;;;12924354;22;20028;-84
2022/12/22 06:08:42;;;;;;;0.45;0.20;;;;;;;;;;12893285;23;20023;-85
2022/12/22 06:13:46;;;;;;;0.10;0.10;;;;;;;;;;12903493;23;20625;-85
2022/12/22 06:18:49;;;;;;;0.17;0.10;;;;;;;;;;12886702;22;20518;-84
2022/12/22 06:23:54;;;;;;;0.10;0.10;;;;;;;;;;12884619;22;20024;-83
2022/12/22 06:28:57;;;;;;;0.15;0.10;;;;;;;;;;12879014;23;20024;-83
2022/12/22 06:34:01;;;;;;;0.63;0.45;;;;;;;;;;12879574;23;20024;-83
2022/12/22 06:39:05;;;;;;;1.67;0.60;;;;;;;;;;12877605;23;20107;-83
2022/12/22 06:44:09;;;;;;;0.77;0.50;;;;;;;;;;12883684;23;20020;-83
2022/12/22 06:49:12;;;;;;;0.45;0.20;;;;;;;;;;12886164;23;20031;-82
2022/12/22 06:54:17;;;;;;;0.75;0.40;;;;;;;;;;12885186;22;20028;-81
2022/12/22 06:59:24;;;;;;;0.73;0.35;;;;;;;;;;12890979;22;20782;-83
2022/12/22 07:04:29;;;;;;;1.08;0.55;;;;;;;;;;12885892;23;20281;-82
2022/12/22 07:09:34;;;;;;;0.75;0.35;;;;;;;;;;12915162;22;20520;-81
2022/12/22 07:14:37;;;;;;;2.80;0.70;;;;;;;;;;12889178;22;20043;-82
2022/12/22 07:19:41;;;;;;;0.85;0.55;;;;;;;;;;12888458;23;20345;-82
2022/12/22 07:24:46;;;;;;;0.80;0.47;;;;;;;;;;12906198;22;20031;-83
2022/12/22 07:29:49;;;;;;;4.50;1.45;;;;;;;;;;12887464;22;20024;-81
2022/12/22 07:34:53;;;;;;;3.63;1.30;;;;;;;;;;12881546;22;20024;-80
2022/12/22 07:39:57;;;;;;;2.88;0.60;;;;;;;;;;12886109;22;20560;-81
2022/12/22 07:45:01;;;;;;;4.15;1.88;;;;;;;;;;12891670;22;20016;-85
2022/12/22 07:55:30;;;;;;;2.45;0.98;;;;;;;;;;12883400;22;20480;-81
2022/12/22 08:00:33;;;;;;;2.15;1.10;;;;;;;;;;12904778;22;20055;-84
2022/12/22 08:05:38;;;;;;;1.52;0.70;;;;;;;;;;12937608;22;20040;-84
2022/12/22 08:10:43;;;;;;;1.10;0.50;;;;;;;;;;12922862;22;20114;-85
2022/12/22 08:15:48;;;;;;;1.63;0.55;;;;;;;;;;12854361;22;20013;-87
2022/12/22 08:20:52;;;;;;;0.85;0.40;;;;;;;;;;12850098;22;20024;-89
2022/12/22 08:26:02;;;;;;;0.68;0.30;;;;;;;;;;12885596;22;20082;-90
2022/12/22 08:31:07;;;;;;;0.38;0.32;;;;;;;;;;12886599;22;20030;-88
2022/12/22 08:36:11;;;;;;;1.98;0.60;;;;;;;;;;12894846;22;20176;-89
2022/12/22 08:41:48;;;;;;;2.25;1.33;;;;;;;;;;12892224;22;20024;-88
2022/12/22 08:46:41;;;;;;;;;;;;;;;;;;12894744;22;20028;-88
2022/12/22 08:51:45;;;;;;;2.72;0.82;;;;;;;;;;12898303;22;19915;-88
2022/12/22 08:56:51;;;;;;;1.17;0.80;;;;;;;;;;12920522;22;20020;-88
2022/12/22 09:01:55;;;;;;;2.10;0.60;;;;;;;;;;12891559;22;20342;-86
2022/12/22 09:07:01;;;;;;;2.80;0.60;;;;;;;;;;12893034;22;20020;-87
2022/12/22 09:12:07;;;;;;;3.03;0.60;;;;;;;;;;12888713;22;20078;-86
2022/12/22 09:17:10;;;;;;;0.90;0.50;;;;;;;;;;12884196;22;20473;-86
2022/12/22 09:22:14;;;;;;;1.95;0.90;;;;;;;;;;12883003;22;20044;-86
2022/12/22 09:27:21;;;;;;;2.75;0.90;;;;;;;;;;12885052;22;20024;-86
2022/12/22 09:32:24;;;;;;;2.42;0.60;;;;;;;;;;12911061;22;20043;-85
2022/12/22 09:37:28;;;;;;;1.17;0.50;;;;;;;;;;12908440;22;20020;-87
2022/12/22 09:42:35;;;;;;;1.10;0.40;;;;;;;;;;12908178;22;20516;-85
2022/12/22 09:47:40;;;;;;;0.77;0.43;;;;;;;;;;12894480;22;20357;-87
2022/12/22 09:52:48;;;;;;;2.03;1.27;;;;;;;;;;12882987;22;20024;-87
2022/12/22 09:57:54;;;;;;;2.85;1.65;;;;;;;;;;12892641;22;20100;-86
2022/12/22 10:03:04;;;;;;;5.13;2.28;;;;;;;;;;12907673;22;20430;-86
2022/12/22 10:08:12;;;;;;;1.65;0.88;;;;;;;;;;12882760;23;20016;-85
2022/12/22 10:13:18;;;;;;;1.13;0.50;;;;;;;;;;12907475;22;20031;-87
2022/12/22 10:18:24;;;;;;;1.10;0.50;;;;;;;;;;12878405;23;20205;-86
2022/12/22 10:23:30;;;;;;;0.67;0.30;;;;;;;;;;12908401;22;20028;-86
2022/12/22 10:28:37;;;;;;;0.20;0.20;;;;;;;;;;12881275;23;20254;-86
2022/12/22 10:33:42;;;;;;;0.82;0.52;;;;;;;;;;12881357;23;20505;-86
2022/12/22 10:38:59;;;;;;;0.60;0.30;;;;;;;;;;12880416;23;20067;-87
2022/12/22 10:44:08;;;;;;;0.57;0.43;;;;;;;;;;12881419;23;20028;-86
2022/12/22 10:49:17;;;;;;;0.52;0.40;;;;;;;;;;12881321;23;20189;-86
2022/12/22 10:54:26;;;;;;;0.70;0.50;;;;;;;;;;12884024;23;20032;-88
2022/12/22 10:59:32;;;;;;;0.88;0.57;;;;;;;;;;12893210;23;20139;-88
2022/12/22 11:04:36;;;;;;;1.00;0.52;;;;;;;;;;12893785;23;20054;-88
2022/12/22 11:09:40;;;;;;;0.60;0.28;;;;;;;;;;12890427;23;20020;-87
2022/12/22 11:14:50;;;;;;;0.22;0.20;;;;;;;;;;12890602;23;20103;-89
2022/12/22 11:20:07;;;;;;;0.32;0.30;;;;;;;;;;12890352;22;20078;-88
2022/12/22 11:25:24;;;;;;;0.20;0.20;;;;;;;;;;12890334;22;20039;-90
2022/12/22 11:30:37;;;;;;;1.50;0.50;;;;;;;;;;12891193;22;20420;-88
2022/12/22 11:35:51;;;;;;;0.47;0.30;;;;;;;;;;12891155;22;20473;-90
2022/12/22 11:41:03;;;;;;;0.45;0.40;;;;;;;;;;12917377;22;20031;-88
2022/12/22 11:46:19;;;;;;;0.82;0.70;;;;;;;;;;12871630;22;20031;-89
2022/12/22 11:51:27;;;;;;;;;;;;;;;;;;12918257;22;20059;-89
2022/12/22 11:56:36;;;;;;;0.45;0.45;;;;;;;;;;12915566;22;19922;-91
2022/12/22 12:01:58;;;;;;;0.70;0.50;;;;;;;;;;12914336;22;20465;-89
2022/12/22 12:07:16;;;;;;;0.30;0.30;;;;;;;;;;12941325;22;20024;-88
2022/12/22 12:12:28;;;;;;;0.90;0.40;;;;;;;;;;12944090;22;20031;-91
2022/12/22 12:17:45;;;;;;;0.80;0.30;;;;;;;;;;12943300;22;20055;-88
2022/12/22 12:23:01;;;;;;;0.30;0.30;;;;;;;;;;12918465;23;20428;-91
2022/12/22 12:28:13;;;;;;;0.77;0.50;;;;;;;;;;12917364;23;20074;-89
2022/12/22 12:33:22;;;;;;;1.02;0.93;;;;;;;;;;12915866;23;20031;-89
2022/12/22 12:38:35;;;;;;;0.50;0.50;;;;;;;;;;12911854;23;20050;-88
2022/12/22 12:44:00;;;;;;;1.33;0.70;;;;;;;;;;12904774;23;20040;-88
2022/12/22 12:49:26;;;;;;;1.17;0.70;;;;;;;;;;12931296;22;20357;-87
2022/12/22 12:54:40;;;;;;;2.47;1.50;;;;;;;;;;12919841;22;20024;-87
2022/12/22 12:59:47;;;;;;;1.92;1.58;;;;;;;;;;12944208;22;20031;-87
2022/12/22 13:05:26;;;;;;;8.23;4.15;;;;;;;;;;12936411;22;20048;-84
2022/12/22 13:10:30;;;;;;;3.92;2.33;;;;;;;;;;12907147;22;20353;-84
2022/12/22 13:15:35;;;;;;;2.47;1.50;;;;;;;;;;12882702;22;20020;-84
2022/12/22 13:20:41;;;;;;;1.40;1.20;;;;;;;;;;12881597;22;20020;-84
2022/12/22 13:25:53;;;;;;;0.60;0.60;;;;;;;;;;12874198;22;20107;-85
2022/12/22 13:31:01;;;;;;;0.75;0.60;;;;;;;;;;12879000;22;20028;-85
2022/12/22 13:36:12;;;;;;;4.40;2.65;;;;;;;;;;12882072;22;20074;-85
2022/12/22 13:41:18;;;;;;;2.42;1.95;;;;;;;;;;12879666;22;20067;-85
2022/12/22 13:46:26;;;;;;;3.17;2.10;;;;;;;;;;12890740;22;20059;-85
2022/12/22 13:51:35;;;;;;;1.40;0.90;;;;;;;;;;12878719;22;20047;-85
2022/12/22 13:56:41;;;;;;;2.20;1.75;;;;;;;;;;12848872;22;20039;-85
2022/12/22 14:01:49;;;;;;;2.40;1.63;;;;;;;;;;12901579;22;20071;-85
2022/12/22 14:06:55;;;;;;;1.30;0.90;;;;;;;;;;12879540;22;20466;-85
2022/12/22 14:12:11;;;;;;;1.03;0.90;;;;;;;;;;12904915;22;20020;-85
2022/12/22 14:17:22;;;;;;;0.82;0.60;;;;;;;;;;12878560;22;20020;-85
2022/12/22 14:22:35;;;;;;;1.80;1.20;;;;;;;;;;12882706;22;20380;-87
2022/12/22 14:27:43;;;;;;;1.20;0.90;;;;;;;;;;12926764;22;20024;-87
2022/12/22 14:32:52;;;;;;;0.50;0.50;;;;;;;;;;12901867;22;20028;-89
2022/12/22 14:38:20;;;;;;;1.13;0.68;;;;;;;;;;12905639;23;20425;-89
2022/12/22 14:43:30;;;;;;;0.50;0.50;;;;;;;;;;12894308;23;20035;-85
2022/12/22 14:48:37;;;;;;;0.82;0.50;;;;;;;;;;12870485;23;20024;-85
2022/12/22 14:53:45;;;;;;;0.57;0.57;;;;;;;;;;12903938;22;20058;-85
2022/12/22 14:58:50;;;;;;;1.13;0.65;;;;;;;;;;12873807;23;20024;-85
2022/12/22 15:04:02;;;;;;;0.55;0.55;;;;;;;;;;12869110;23;20035;-85
2022/12/22 15:09:26;;;;;;;1.60;1.42;;;;;;;;;;12876027;23;20408;-88
2022/12/22 15:14:50;;;;;;;1.30;1.10;;;;;;;;;;12899998;22;20457;-86
2022/12/22 15:19:57;;;;;;;1.23;1.13;;;;;;;;;;12869318;22;20016;-83
2022/12/22 15:25:02;;;;;;;0.68;0.60;;;;;;;;;;12876855;22;20028;-83
2022/12/22 15:30:06;;;;;;;0.60;0.60;;;;;;;;;;12902250;22;20016;-83
2022/12/22 15:35:19;;;;;;;0.30;0.30;;;;;;;;;;12898517;22;20510;-83
2022/12/22 15:40:25;;;;;;;0.50;0.30;;;;;;;;;;12896827;22;20519;-83
2022/12/22 15:45:30;;;;;;;0.32;0.30;;;;;;;;;;12900207;22;20026;-83
2022/12/22 15:50:37;;;;;;;0.28;0.28;;;;;;;;;;12898411;22;20021;-83
2022/12/22 15:55:46;;;;;;;0.30;0.30;;;;;;;;;;12899298;22;20392;-83
2022/12/22 16:00:49;;;;;;;0.80;0.60;;;;;;;;;;12896499;22;20031;-83
2022/12/22 16:05:53;;;;;;;0.75;0.60;;;;;;;;;;12877236;22;20050;-82
2022/12/22 16:10:58;;;;;;;0.80;0.80;;;;;;;;;;12876081;22;20501;-84
2022/12/22 16:16:01;;;;;;;0.95;0.60;;;;;;;;;;12876910;22;20107;-84
2022/12/22 16:21:08;;;;;;;0.40;0.40;;;;;;;;;;12874847;22;20086;-85
2022/12/22 16:26:14;;;;;;;;;;;;;;;;;;12876321;22;20020;-84
2022/12/22 16:31:20;;;;;;;0.85;0.80;;;;;;;;;;12873987;22;20197;-84
2022/12/22 16:36:23;;;;;;;1.50;1.00;;;;;;;;;;12878959;22;20440;-84
2022/12/22 16:41:28;;;;;;;1.73;0.80;;;;;;;;;;12893981;22;20034;-83
2022/12/22 16:46:36;;;;;;;1.00;0.60;;;;;;;;;;12876025;22;20035;-83
2022/12/22 16:51:46;;;;;;;0.70;0.43;;;;;;;;;;12878791;22;20024;-84
2022/12/22 16:56:51;;;;;;;0.60;0.40;;;;;;;;;;12885192;22;20140;-84
2022/12/22 17:01:56;;;;;;;0.50;0.40;;;;;;;;;;12907333;22;20048;-85
2022/12/22 17:07:01;;;;;;;1.45;0.60;;;;;;;;;;12883732;22;20030;-84
2022/12/22 17:12:07;;;;;;;0.82;0.40;;;;;;;;;;12900247;22;20103;-83
2022/12/22 17:17:16;;;;;;;0.60;0.43;;;;;;;;;;12900674;22;20024;-83
2022/12/22 17:22:23;;;;;;;0.88;0.50;;;;;;;;;;12884984;22;20039;-84
2022/12/22 17:27:30;;;;;;;2.45;0.55;;;;;;;;;;12901975;22;20095;-85
2022/12/22 17:32:34;;;;;;;0.98;0.65;;;;;;;;;;12913874;22;20048;-84
2022/12/22 17:37:37;;;;;;;1.17;0.40;;;;;;;;;;12862670;22;20095;-83
2022/12/22 17:42:42;;;;;;;1.10;0.52;;;;;;;;;;12889210;22;20043;-84
2022/12/22 17:47:46;;;;;;;1.27;0.60;;;;;;;;;;12915014;22;20096;-83
2022/12/22 17:52:50;;;;;;;4.05;0.90;;;;;;;;;;12889759;23;20051;-85
2022/12/22 17:57:55;;;;;;;4.20;1.60;;;;;;;;;;12911361;22;20048;-84
2022/12/22 18:02:59;;;;;;;4.43;1.58;;;;;;;;;;12906627;22;20191;-85
2022/12/22 18:08:02;;;;;;;3.72;1.40;;;;;;;;;;12889347;23;20024;-85
2022/12/22 18:13:15;;;;;;;2.65;1.25;;;;;;;;;;12880830;23;20020;-84
2022/12/22 18:18:19;;;;;;;4.35;1.20;;;;;;;;;;12887442;22;20099;-84
2022/12/22 18:23:26;;;;;;;2.28;1.20;;;;;;;;;;12883027;23;20027;-85
2022/12/22 18:28:31;;;;;;;3.05;0.80;;;;;;;;;;12880664;23;20016;-85
2022/12/22 18:33:35;;;;;;;3.42;1.00;;;;;;;;;;12869414;23;20024;-84
2022/12/22 18:38:38;;;;;;;2.05;0.75;;;;;;;;;;12878904;22;20484;-84
2022/12/22 18:43:43;;;;;;;3.78;1.20;;;;;;;;;;12873261;23;20020;-84
2022/12/22 18:48:48;;;;;;;3.58;2.05;;;;;;;;;;12877159;23;20389;-85
2022/12/22 18:53:53;;;;;;;3.67;1.48;;;;;;;;;;12873707;23;20103;-84
2022/12/22 18:58:58;;;;;;;3.38;1.02;;;;;;;;;;12879730;23;20020;-83
2022/12/22 19:04:05;;;;;;;4.53;1.42;;;;;;;;;;12872886;23;20291;-84
2022/12/22 19:09:13;;;;;;;3.53;1.15;;;;;;;;;;12904823;22;20070;-85
2022/12/22 19:14:21;;;;;;;4.40;0.90;;;;;;;;;;12874949;23;20016;-85
2022/12/22 19:19:25;;;;;;;6.25;1.42;;;;;;;;;;12905499;22;20103;-83
2022/12/22 19:24:28;;;;;;;4.38;1.48;;;;;;;;;;12907790;22;20030;-84
2022/12/22 19:29:33;;;;;;;4.10;1.25;;;;;;;;;;12909919;23;20116;-85
2022/12/22 19:34:36;;;;;;;4.25;1.58;;;;;;;;;;12895813;22;20020;-84
2022/12/22 19:39:39;;;;;;;2.78;1.10;;;;;;;;;;12877258;23;20554;-84
2022/12/22 19:44:44;;;;;;;4.65;1.45;;;;;;;;;;12875765;23;20533;-84
2022/12/22 19:49:48;;;;;;;5.65;1.50;;;;;;;;;;12901509;22;20028;-85
2022/12/22 19:54:52;;;;;;;6.28;2.30;;;;;;;;;;12876484;22;20374;-84
2022/12/22 19:59:56;;;;;;;5.28;1.55;;;;;;;;;;12877091;22;20024;-85
2022/12/22 20:05:00;;;;;;;3.60;1.30;;;;;;;;;;12899005;22;20695;-85
2022/12/22 20:10:04;;;;;;;3.30;1.30;;;;;;;;;;12902365;22;20024;-86
2022/12/22 20:15:17;;;;;;;5.00;1.55;;;;;;;;;;12901656;22;21899;-85
2022/12/22 20:20:24;;;;;;;4.72;1.50;;;;;;;;;;12900586;22;20027;-85
2022/12/22 20:25:28;;;;;;;;;;;;;;;;;;12882099;22;20390;-86
2022/12/22 20:30:33;;;;;;;3.25;1.00;;;;;;;;;;12882926;22;20309;-85
2022/12/22 20:35:37;;;;;;;6.85;1.77;;;;;;;;;;12882408;22;20024;-85
2022/12/22 20:40:41;;;;;;;6.28;2.17;;;;;;;;;;12884756;22;20012;-86
2022/12/22 20:45:48;;;;;;;5.32;1.45;;;;;;;;;;12886860;22;20047;-85
2022/12/22 20:50:52;;;;;;;2.05;1.08;;;;;;;;;;12898223;22;20286;-85
2022/12/22 20:55:56;;;;;;;3.08;1.33;;;;;;;;;;12882393;22;20066;-84
2022/12/22 21:01:02;;;;;;;2.25;0.90;;;;;;;;;;12878593;22;20055;-85
2022/12/22 21:06:21;;;;;;;2.15;0.90;;;;;;;;;;12878587;22;20111;-85
2022/12/22 21:11:25;;;;;;;1.70;0.70;;;;;;;;;;12904900;22;20276;-85
2022/12/22 21:16:32;;;;;;;1.98;0.80;;;;;;;;;;12878806;22;20024;-85
2022/12/22 21:21:36;;;;;;;1.13;0.80;;;;;;;;;;12898253;22;20835;-86
2022/12/22 21:26:42;;;;;;;1.15;0.57;;;;;;;;;;12885242;22;20372;-84
2022/12/22 21:31:47;;;;;;;1.55;0.55;;;;;;;;;;12881070;22;20119;-83
2022/12/22 21:36:55;;;;;;;2.15;0.70;;;;;;;;;;12906790;22;20535;-81
2022/12/22 21:42:03;;;;;;;1.67;0.63;;;;;;;;;;12882252;22;20487;-81
2022/12/22 21:47:12;;;;;;;2.35;0.80;;;;;;;;;;12896929;22;20038;-86
2022/12/22 21:52:16;;;;;;;1.05;0.55;;;;;;;;;;12912097;22;20024;-84
2022/12/22 21:57:19;;;;;;;3.83;0.55;;;;;;;;;;12900056;22;20058;-81
2022/12/22 22:02:24;;;;;;;2.17;0.47;;;;;;;;;;12907679;22;20369;-81
2022/12/22 22:07:27;;;;;;;1.17;0.47;;;;;;;;;;12906211;22;20031;-81
2022/12/22 22:12:35;;;;;;;1.73;0.88;;;;;;;;;;12907487;22;20026;-81
2022/12/22 22:17:40;;;;;;;2.10;1.38;;;;;;;;;;12892312;22;20024;-81
2022/12/22 22:22:45;;;;;;;3.22;1.08;;;;;;;;;;12884529;22;20046;-83
2022/12/22 22:27:50;;;;;;;2.20;0.93;;;;;;;;;;12895292;22;20082;-80
2022/12/22 22:32:55;;;;;;;0.98;0.50;;;;;;;;;;12912059;22;20035;-81
2022/12/22 22:37:58;;;;;;;0.63;0.37;;;;;;;;;;12883055;23;20171;-80
2022/12/22 22:43:02;;;;;;;0.68;0.50;;;;;;;;;;12859961;23;20020;-82
2022/12/22 22:48:07;;;;;;;0.77;0.43;;;;;;;;;;12908318;22;20024;-80
2022/12/22 22:53:12;;;;;;;2.22;0.40;;;;;;;;;;12885994;23;20025;-81
2022/12/22 22:58:16;;;;;;;1.55;0.50;;;;;;;;;;12884837;23;20259;-81
2022/12/22 23:03:23;;;;;;;;;;;;;;;;;;12886735;22;20024;-80
2022/12/22 23:08:27;;;;;;;2.72;1.35;;;;;;;;;;12890127;23;19919;-81
2022/12/22 23:13:31;;;;;;;2.08;1.10;;;;;;;;;;12907579;22;20128;-81
2022/12/22 23:18:36;;;;;;;1.13;0.77;;;;;;;;;;12910004;22;20501;-82
2022/12/22 23:23:39;;;;;;;1.60;0.90;;;;;;;;;;12907446;22;20091;-82
2022/12/22 23:28:43;;;;;;;3.80;1.00;;;;;;;;;;12907528;22;20024;-81
2022/12/22 23:33:47;;;;;;;0.98;0.70;;;;;;;;;;12883467;23;20020;-81
2022/12/22 23:38:51;;;;;;;0.43;0.30;;;;;;;;;;12884104;23;20028;-81
2022/12/22 23:43:55;;;;;;;1.77;0.47;;;;;;;;;;12884705;23;20099;-80
2022/12/22 23:48:59;;;;;;;0.50;0.40;;;;;;;;;;12885338;23;20778;-81
2022/12/22 23:54:03;;;;;;;0.30;0.20;;;;;;;;;;12890146;22;20051;-81
2022/12/22 23:59:07;;;;;;;0.85;0.50;;;;;;;;;;12883615;23;20032;-82
